sensor_id;sensor_type;location;lat;lon;timestamp;P1;durP1;ratioP1;P2;durP2;ratioP2
6121;SDS011;3091;51.506;7.672;2023-04-03T00:01:14;15.93;;;15.33;;
6121;SDS011;3091;51.506;7.672;2023-04-03T00:03:40;16.20;;;15.57;;
6121;SDS011;3091;51.506;7.672;2023-04-03T00:06:06;16.10;;;15.50;;
6121;SDS011;3091;51.506;7.672;2023-04-03T00:08:34;16.70;;;16.10;;
6121;SDS011;3091;51.506;7.672;2023-04-03T00:11:00;16.60;;;15.90;;
6121;SDS011;3091;51.506;7.672;2023-04-03T00:13:26;16.07;;;15.47;;
6121;SDS011;3091;51.506;7.672;2023-04-03T00:15:52;17.27;;;16.57;;
6121;SDS011;3091;51.506;7.672;2023-04-03T00:18:18;16.43;;;15.83;;
6121;SDS011;3091;51.506;7.672;2023-04-03T00:20:44;17.07;;;16.47;;
6121;SDS011;3091;51.506;7.672;2023-04-03T00:23:13;16.80;;;16.20;;
6121;SDS011;3091;51.506;7.672;2023-04-03T00:25:39;17.33;;;16.73;;
6121;SDS011;3091;51.506;7.672;2023-04-03T00:28:08;17.00;;;16.40;;
6121;SDS011;3091;51.506;7.672;2023-04-03T00:30:34;17.27;;;16.67;;
6121;SDS011;3091;51.506;7.672;2023-04-03T00:33:00;18.13;;;17.43;;
6121;SDS011;3091;51.506;7.672;2023-04-03T00:35:26;19.20;;;17.83;;
6121;SDS011;3091;51.506;7.672;2023-04-03T00:37:53;17.67;;;16.97;;
6121;SDS011;3091;51.506;7.672;2023-04-03T00:40:22;17.30;;;16.70;;
6121;SDS011;3091;51.506;7.672;2023-04-03T00:42:50;17.17;;;16.57;;
6121;SDS011;3091;51.506;7.672;2023-04-03T00:47:43;17.07;;;16.47;;
6121;SDS011;3091;51.506;7.672;2023-04-03T00:50:10;16.83;;;15.93;;
6121;SDS011;3091;51.506;7.672;2023-04-03T00:52:36;16.00;;;15.40;;
6121;SDS011;3091;51.506;7.672;2023-04-03T00:55:04;16.40;;;15.80;;
6121;SDS011;3091;51.506;7.672;2023-04-03T00:57:31;15.90;;;15.30;;
6121;SDS011;3091;51.506;7.672;2023-04-03T00:59:59;15.77;;;15.23;;
6121;SDS011;3091;51.506;7.672;2023-04-03T01:02:26;16.27;;;15.67;;
6121;SDS011;3091;51.506;7.672;2023-04-03T01:04:52;16.00;;;15.40;;
6121;SDS011;3091;51.506;7.672;2023-04-03T01:07:19;16.20;;;15.60;;
6121;SDS011;3091;51.506;7.672;2023-04-03T01:09:47;16.93;;;16.33;;
6121;SDS011;3091;51.506;7.672;2023-04-03T01:12:24;16.40;;;15.80;;
6121;SDS011;3091;51.506;7.672;2023-04-03T01:14:54;16.40;;;15.80;;
6121;SDS011;3091;51.506;7.672;2023-04-03T01:22:45;15.97;;;15.37;;
6121;SDS011;3091;51.506;7.672;2023-04-03T01:25:17;15.87;;;15.27;;
6121;SDS011;3091;51.506;7.672;2023-04-03T01:27:43;16.20;;;15.60;;
6121;SDS011;3091;51.506;7.672;2023-04-03T01:30:10;16.20;;;15.60;;
6121;SDS011;3091;51.506;7.672;2023-04-03T01:32:38;16.40;;;15.80;;
6121;SDS011;3091;51.506;7.672;2023-04-03T01:35:06;16.20;;;15.60;;
6121;SDS011;3091;51.506;7.672;2023-04-03T01:37:32;16.30;;;15.70;;
6121;SDS011;3091;51.506;7.672;2023-04-03T01:39:58;16.50;;;15.90;;
6121;SDS011;3091;51.506;7.672;2023-04-03T01:42:24;16.00;;;15.40;;
6121;SDS011;3091;51.506;7.672;2023-04-03T01:44:50;16.10;;;15.50;;
6121;SDS011;3091;51.506;7.672;2023-04-03T01:47:16;16.80;;;16.20;;
6121;SDS011;3091;51.506;7.672;2023-04-03T01:49:42;16.07;;;15.47;;
6121;SDS011;3091;51.506;7.672;2023-04-03T01:52:08;17.00;;;16.37;;
6121;SDS011;3091;51.506;7.672;2023-04-03T01:54:34;16.90;;;16.23;;
6121;SDS011;3091;51.506;7.672;2023-04-03T01:57:00;17.27;;;16.40;;
6121;SDS011;3091;51.506;7.672;2023-04-03T01:59:26;17.10;;;16.30;;
6121;SDS011;3091;51.506;7.672;2023-04-03T02:01:53;16.40;;;15.80;;
6121;SDS011;3091;51.506;7.672;2023-04-03T02:04:19;16.47;;;15.77;;
6121;SDS011;3091;51.506;7.672;2023-04-03T02:06:45;15.90;;;15.30;;
6121;SDS011;3091;51.506;7.672;2023-04-03T02:09:11;16.20;;;15.60;;
6121;SDS011;3091;51.506;7.672;2023-04-03T02:11:37;16.07;;;15.47;;
6121;SDS011;3091;51.506;7.672;2023-04-03T02:14:05;16.30;;;15.70;;
6121;SDS011;3091;51.506;7.672;2023-04-03T02:16:31;16.30;;;15.70;;
6121;SDS011;3091;51.506;7.672;2023-04-03T02:18:58;17.00;;;16.40;;
6121;SDS011;3091;51.506;7.672;2023-04-03T02:21:24;17.30;;;16.60;;
6121;SDS011;3091;51.506;7.672;2023-04-03T02:23:50;16.37;;;15.77;;
6121;SDS011;3091;51.506;7.672;2023-04-03T02:26:16;16.30;;;15.70;;
6121;SDS011;3091;51.506;7.672;2023-04-03T02:28:42;16.03;;;15.43;;
6121;SDS011;3091;51.506;7.672;2023-04-03T02:31:08;16.60;;;16.00;;
6121;SDS011;3091;51.506;7.672;2023-04-03T02:33:35;16.60;;;16.00;;
6121;SDS011;3091;51.506;7.672;2023-04-03T02:36:03;17.10;;;16.50;;
6121;SDS011;3091;51.506;7.672;2023-04-03T02:38:29;16.57;;;15.97;;
6121;SDS011;3091;51.506;7.672;2023-04-03T02:41:02;17.10;;;16.40;;
6121;SDS011;3091;51.506;7.672;2023-04-03T02:43:28;17.03;;;16.23;;
6121;SDS011;3091;51.506;7.672;2023-04-03T02:45:54;17.53;;;16.70;;
6121;SDS011;3091;51.506;7.672;2023-04-03T02:48:20;17.40;;;16.60;;
6121;SDS011;3091;51.506;7.672;2023-04-03T02:50:46;16.30;;;15.70;;
6121;SDS011;3091;51.506;7.672;2023-04-03T02:53:12;17.10;;;16.40;;
6121;SDS011;3091;51.506;7.672;2023-04-03T02:55:38;17.67;;;16.77;;
6121;SDS011;3091;51.506;7.672;2023-04-03T02:58:04;16.60;;;16.00;;
6121;SDS011;3091;51.506;7.672;2023-04-03T03:00:31;16.63;;;15.93;;
6121;SDS011;3091;51.506;7.672;2023-04-03T03:02:57;16.37;;;15.73;;
6121;SDS011;3091;51.506;7.672;2023-04-03T03:05:23;16.10;;;15.50;;
6121;SDS011;3091;51.506;7.672;2023-04-03T03:07:49;16.90;;;16.20;;
6121;SDS011;3091;51.506;7.672;2023-04-03T03:10:15;16.50;;;15.90;;
6121;SDS011;3091;51.506;7.672;2023-04-03T03:12:41;16.60;;;16.00;;
6121;SDS011;3091;51.506;7.672;2023-04-03T03:15:07;17.50;;;16.80;;
6121;SDS011;3091;51.506;7.672;2023-04-03T03:17:33;16.90;;;16.20;;
6121;SDS011;3091;51.506;7.672;2023-04-03T03:20:01;16.97;;;16.27;;
6121;SDS011;3091;51.506;7.672;2023-04-03T03:22:27;16.47;;;15.87;;
6121;SDS011;3091;51.506;7.672;2023-04-03T03:24:53;16.53;;;15.93;;
6121;SDS011;3091;51.506;7.672;2023-04-03T03:27:19;16.60;;;16.00;;
6121;SDS011;3091;51.506;7.672;2023-04-03T03:29:45;17.13;;;16.43;;
6121;SDS011;3091;51.506;7.672;2023-04-03T03:32:11;16.53;;;15.90;;
6121;SDS011;3091;51.506;7.672;2023-04-03T03:34:38;16.10;;;15.50;;
6121;SDS011;3091;51.506;7.672;2023-04-03T03:37:04;18.03;;;17.13;;
6121;SDS011;3091;51.506;7.672;2023-04-03T03:39:30;17.27;;;16.57;;
6121;SDS011;3091;51.506;7.672;2023-04-03T03:41:56;16.50;;;15.90;;
6121;SDS011;3091;51.506;7.672;2023-04-03T03:44:22;17.87;;;17.17;;
6121;SDS011;3091;51.506;7.672;2023-04-03T03:46:48;17.03;;;16.00;;
6121;SDS011;3091;51.506;7.672;2023-04-03T03:49:14;16.70;;;16.00;;
6121;SDS011;3091;51.506;7.672;2023-04-03T03:51:40;16.80;;;16.10;;
6121;SDS011;3091;51.506;7.672;2023-04-03T03:54:09;16.40;;;15.80;;
6121;SDS011;3091;51.506;7.672;2023-04-03T03:56:35;16.50;;;15.90;;
6121;SDS011;3091;51.506;7.672;2023-04-03T03:59:03;16.90;;;16.20;;
6121;SDS011;3091;51.506;7.672;2023-04-03T04:01:30;17.50;;;16.60;;
6121;SDS011;3091;51.506;7.672;2023-04-03T04:03:55;17.00;;;16.30;;
6121;SDS011;3091;51.506;7.672;2023-04-03T04:06:21;16.70;;;16.00;;
6121;SDS011;3091;51.506;7.672;2023-04-03T04:08:47;16.50;;;15.80;;
6121;SDS011;3091;51.506;7.672;2023-04-03T04:11:13;18.10;;;17.10;;
6121;SDS011;3091;51.506;7.672;2023-04-03T04:13:40;16.57;;;15.87;;
6121;SDS011;3091;51.506;7.672;2023-04-03T04:16:06;16.80;;;16.10;;
6121;SDS011;3091;51.506;7.672;2023-04-03T04:18:32;16.90;;;16.20;;
6121;SDS011;3091;51.506;7.672;2023-04-03T04:20:58;17.00;;;16.30;;
6121;SDS011;3091;51.506;7.672;2023-04-03T04:23:24;17.20;;;16.40;;
6121;SDS011;3091;51.506;7.672;2023-04-03T04:25:50;16.67;;;15.87;;
6121;SDS011;3091;51.506;7.672;2023-04-03T04:28:16;17.20;;;16.37;;
6121;SDS011;3091;51.506;7.672;2023-04-03T04:30:43;16.90;;;16.30;;
6121;SDS011;3091;51.506;7.672;2023-04-03T04:33:09;16.20;;;15.50;;
6121;SDS011;3091;51.506;7.672;2023-04-03T04:35:35;15.30;;;14.70;;
6121;SDS011;3091;51.506;7.672;2023-04-03T04:38:01;15.30;;;14.70;;
6121;SDS011;3091;51.506;7.672;2023-04-03T04:40:30;15.20;;;14.60;;
6121;SDS011;3091;51.506;7.672;2023-04-03T04:42:56;15.40;;;14.80;;
6121;SDS011;3091;51.506;7.672;2023-04-03T04:45:24;14.93;;;14.33;;
6121;SDS011;3091;51.506;7.672;2023-04-03T04:47:50;16.10;;;15.50;;
6121;SDS011;3091;51.506;7.672;2023-04-03T04:50:17;15.80;;;15.10;;
6121;SDS011;3091;51.506;7.672;2023-04-03T04:52:46;16.90;;;16.10;;
6121;SDS011;3091;51.506;7.672;2023-04-03T04:55:12;16.00;;;15.30;;
6121;SDS011;3091;51.506;7.672;2023-04-03T04:57:38;15.80;;;15.20;;
6121;SDS011;3091;51.506;7.672;2023-04-03T05:00:06;15.07;;;14.47;;
6121;SDS011;3091;51.506;7.672;2023-04-03T05:02:33;15.10;;;14.50;;
6121;SDS011;3091;51.506;7.672;2023-04-03T05:04:59;14.80;;;14.20;;
6121;SDS011;3091;51.506;7.672;2023-04-03T05:07:25;15.20;;;14.60;;
6121;SDS011;3091;51.506;7.672;2023-04-03T05:09:51;15.00;;;14.40;;
6121;SDS011;3091;51.506;7.672;2023-04-03T05:12:19;14.80;;;14.20;;
6121;SDS011;3091;51.506;7.672;2023-04-03T05:14:45;15.37;;;14.53;;
6121;SDS011;3091;51.506;7.672;2023-04-03T05:17:11;15.90;;;15.30;;
6121;SDS011;3091;51.506;7.672;2023-04-03T05:19:37;17.03;;;15.77;;
6121;SDS011;3091;51.506;7.672;2023-04-03T05:22:03;16.23;;;15.53;;
6121;SDS011;3091;51.506;7.672;2023-04-03T05:24:29;15.63;;;15.03;;
6121;SDS011;3091;51.506;7.672;2023-04-03T05:26:55;15.50;;;14.80;;
6121;SDS011;3091;51.506;7.672;2023-04-03T05:29:21;15.00;;;14.40;;
6121;SDS011;3091;51.506;7.672;2023-04-03T05:31:51;15.83;;;15.23;;
6121;SDS011;3091;51.506;7.672;2023-04-03T05:34:17;15.77;;;15.10;;
6121;SDS011;3091;51.506;7.672;2023-04-03T05:36:43;15.60;;;15.00;;
6121;SDS011;3091;51.506;7.672;2023-04-03T05:39:09;15.40;;;14.80;;
6121;SDS011;3091;51.506;7.672;2023-04-03T05:41:37;15.70;;;15.10;;
6121;SDS011;3091;51.506;7.672;2023-04-03T05:44:03;15.40;;;14.80;;
6121;SDS011;3091;51.506;7.672;2023-04-03T05:46:29;16.30;;;15.60;;
6121;SDS011;3091;51.506;7.672;2023-04-03T05:48:55;16.00;;;15.40;;
6121;SDS011;3091;51.506;7.672;2023-04-03T05:51:22;16.10;;;15.43;;
6121;SDS011;3091;51.506;7.672;2023-04-03T05:53:55;15.10;;;14.50;;
6121;SDS011;3091;51.506;7.672;2023-04-03T05:56:22;15.10;;;14.50;;
6121;SDS011;3091;51.506;7.672;2023-04-03T05:58:48;14.93;;;14.37;;
6121;SDS011;3091;51.506;7.672;2023-04-03T06:01:14;15.53;;;14.93;;
6121;SDS011;3091;51.506;7.672;2023-04-03T06:03:43;15.90;;;15.30;;
6121;SDS011;3091;51.506;7.672;2023-04-03T06:06:12;14.37;;;13.87;;
6121;SDS011;3091;51.506;7.672;2023-04-03T06:08:38;14.67;;;14.17;;
6121;SDS011;3091;51.506;7.672;2023-04-03T06:11:05;14.37;;;13.87;;
6121;SDS011;3091;51.506;7.672;2023-04-03T06:13:31;14.77;;;14.27;;
6121;SDS011;3091;51.506;7.672;2023-04-03T06:15:58;13.50;;;13.10;;
6121;SDS011;3091;51.506;7.672;2023-04-03T06:18:24;13.80;;;13.30;;
6121;SDS011;3091;51.506;7.672;2023-04-03T06:20:50;13.20;;;12.80;;
6121;SDS011;3091;51.506;7.672;2023-04-03T06:23:16;13.30;;;12.87;;
6121;SDS011;3091;51.506;7.672;2023-04-03T06:25:42;14.40;;;12.70;;
6121;SDS011;3091;51.506;7.672;2023-04-03T06:28:09;12.70;;;12.30;;
6121;SDS011;3091;51.506;7.672;2023-04-03T06:30:35;12.53;;;12.13;;
6121;SDS011;3091;51.506;7.672;2023-04-03T06:33:02;14.20;;;13.70;;
6121;SDS011;3091;51.506;7.672;2023-04-03T06:35:28;15.70;;;14.90;;
6121;SDS011;3091;51.506;7.672;2023-04-03T06:37:55;12.97;;;12.57;;
6121;SDS011;3091;51.506;7.672;2023-04-03T06:40:22;15.30;;;14.53;;
6121;SDS011;3091;51.506;7.672;2023-04-03T06:42:50;13.70;;;13.20;;
6121;SDS011;3091;51.506;7.672;2023-04-03T06:45:17;12.87;;;12.47;;
6121;SDS011;3091;51.506;7.672;2023-04-03T06:47:43;11.57;;;11.17;;
6121;SDS011;3091;51.506;7.672;2023-04-03T06:50:10;11.70;;;11.30;;
6121;SDS011;3091;51.506;7.672;2023-04-03T06:52:41;11.20;;;10.90;;
6121;SDS011;3091;51.506;7.672;2023-04-03T06:55:07;11.40;;;10.90;;
6121;SDS011;3091;51.506;7.672;2023-04-03T06:57:34;11.20;;;10.83;;
6121;SDS011;3091;51.506;7.672;2023-04-03T07:00:00;10.93;;;10.63;;
6121;SDS011;3091;51.506;7.672;2023-04-03T07:02:28;11.03;;;10.73;;
6121;SDS011;3091;51.506;7.672;2023-04-03T07:04:54;11.00;;;10.70;;
6121;SDS011;3091;51.506;7.672;2023-04-03T07:07:20;11.13;;;10.77;;
6121;SDS011;3091;51.506;7.672;2023-04-03T07:09:47;10.90;;;10.50;;
6121;SDS011;3091;51.506;7.672;2023-04-03T07:12:13;11.17;;;10.80;;
6121;SDS011;3091;51.506;7.672;2023-04-03T07:14:40;11.27;;;10.77;;
6121;SDS011;3091;51.506;7.672;2023-04-03T07:17:07;10.43;;;10.13;;
6121;SDS011;3091;51.506;7.672;2023-04-03T07:19:33;11.40;;;11.00;;
6121;SDS011;3091;51.506;7.672;2023-04-03T07:21:59;11.70;;;11.30;;
6121;SDS011;3091;51.506;7.672;2023-04-03T07:24:25;12.70;;;12.20;;
6121;SDS011;3091;51.506;7.672;2023-04-03T07:26:52;11.90;;;11.40;;
6121;SDS011;3091;51.506;7.672;2023-04-03T07:29:18;11.30;;;11.00;;
6121;SDS011;3091;51.506;7.672;2023-04-03T07:31:46;10.60;;;10.30;;
6121;SDS011;3091;51.506;7.672;2023-04-03T07:34:12;10.77;;;10.37;;
6121;SDS011;3091;51.506;7.672;2023-04-03T07:36:38;10.70;;;10.40;;
6121;SDS011;3091;51.506;7.672;2023-04-03T07:39:05;11.57;;;11.17;;
6121;SDS011;3091;51.506;7.672;2023-04-03T07:41:33;11.17;;;10.77;;
6121;SDS011;3091;51.506;7.672;2023-04-03T07:43:59;11.97;;;11.47;;
6121;SDS011;3091;51.506;7.672;2023-04-03T07:46:25;10.97;;;10.67;;
6121;SDS011;3091;51.506;7.672;2023-04-03T07:48:51;11.00;;;10.60;;
6121;SDS011;3091;51.506;7.672;2023-04-03T07:51:25;10.23;;;9.93;;
6121;SDS011;3091;51.506;7.672;2023-04-03T07:53:51;11.43;;;11.03;;
6121;SDS011;3091;51.506;7.672;2023-04-03T07:56:17;10.50;;;10.20;;
6121;SDS011;3091;51.506;7.672;2023-04-03T07:58:43;10.40;;;10.10;;
6121;SDS011;3091;51.506;7.672;2023-04-03T08:01:10;10.60;;;10.20;;
6121;SDS011;3091;51.506;7.672;2023-04-03T08:03:36;10.30;;;10.00;;
6121;SDS011;3091;51.506;7.672;2023-04-03T08:06:03;12.30;;;11.90;;
6121;SDS011;3091;51.506;7.672;2023-04-03T08:08:30;12.07;;;11.67;;
6121;SDS011;3091;51.506;7.672;2023-04-03T08:10:57;12.10;;;11.70;;
6121;SDS011;3091;51.506;7.672;2023-04-03T08:13:24;12.17;;;11.50;;
6121;SDS011;3091;51.506;7.672;2023-04-03T08:15:50;12.67;;;12.07;;
6121;SDS011;3091;51.506;7.672;2023-04-03T08:18:16;11.73;;;11.33;;
6121;SDS011;3091;51.506;7.672;2023-04-03T08:20:45;12.10;;;11.70;;
6121;SDS011;3091;51.506;7.672;2023-04-03T08:23:11;12.30;;;11.80;;
6121;SDS011;3091;51.506;7.672;2023-04-03T08:25:39;11.50;;;11.10;;
6121;SDS011;3091;51.506;7.672;2023-04-03T08:28:05;11.40;;;11.00;;
6121;SDS011;3091;51.506;7.672;2023-04-03T08:30:32;11.20;;;10.80;;
6121;SDS011;3091;51.506;7.672;2023-04-03T08:33:00;11.10;;;10.70;;
6121;SDS011;3091;51.506;7.672;2023-04-03T08:35:28;12.53;;;12.13;;
6121;SDS011;3091;51.506;7.672;2023-04-03T08:37:54;11.53;;;11.13;;
6121;SDS011;3091;51.506;7.672;2023-04-03T08:40:21;11.50;;;11.10;;
6121;SDS011;3091;51.506;7.672;2023-04-03T08:45:26;12.27;;;11.70;;
6121;SDS011;3091;51.506;7.672;2023-04-03T08:47:57;11.57;;;10.97;;
6121;SDS011;3091;51.506;7.672;2023-04-03T08:50:30;12.40;;;11.80;;
6121;SDS011;3091;51.506;7.672;2023-04-03T08:53:05;11.37;;;10.97;;
6121;SDS011;3091;51.506;7.672;2023-04-03T08:55:42;11.70;;;11.30;;
6121;SDS011;3091;51.506;7.672;2023-04-03T08:58:15;11.93;;;11.33;;
6121;SDS011;3091;51.506;7.672;2023-04-03T09:00:57;11.30;;;10.90;;
6121;SDS011;3091;51.506;7.672;2023-04-03T09:03:23;11.40;;;11.00;;
6121;SDS011;3091;51.506;7.672;2023-04-03T09:08:26;12.60;;;12.00;;
6121;SDS011;3091;51.506;7.672;2023-04-03T09:16:14;12.20;;;11.70;;
6121;SDS011;3091;51.506;7.672;2023-04-03T09:18:45;11.83;;;11.43;;
6121;SDS011;3091;51.506;7.672;2023-04-03T09:21:16;12.77;;;12.37;;
6121;SDS011;3091;51.506;7.672;2023-04-03T09:23:46;12.00;;;11.60;;
6121;SDS011;3091;51.506;7.672;2023-04-03T09:26:25;12.73;;;12.13;;
6121;SDS011;3091;51.506;7.672;2023-04-03T09:28:52;12.30;;;11.90;;
6121;SDS011;3091;51.506;7.672;2023-04-03T09:31:21;12.20;;;11.80;;
6121;SDS011;3091;51.506;7.672;2023-04-03T09:33:49;13.00;;;12.40;;
6121;SDS011;3091;51.506;7.672;2023-04-03T09:36:37;12.60;;;12.20;;
6121;SDS011;3091;51.506;7.672;2023-04-03T09:39:03;12.20;;;11.80;;
6121;SDS011;3091;51.506;7.672;2023-04-03T09:41:29;11.80;;;11.37;;
6121;SDS011;3091;51.506;7.672;2023-04-03T09:43:58;11.53;;;11.13;;
6121;SDS011;3091;51.506;7.672;2023-04-03T09:46:31;12.33;;;11.93;;
6121;SDS011;3091;51.506;7.672;2023-04-03T09:49:02;11.33;;;10.93;;
6121;SDS011;3091;51.506;7.672;2023-04-03T09:51:28;11.70;;;11.30;;
6121;SDS011;3091;51.506;7.672;2023-04-03T09:53:54;11.50;;;11.10;;
6121;SDS011;3091;51.506;7.672;2023-04-03T09:56:25;12.07;;;11.67;;
6121;SDS011;3091;51.506;7.672;2023-04-03T10:03:46;11.77;;;11.27;;
6121;SDS011;3091;51.506;7.672;2023-04-03T10:06:29;11.70;;;11.30;;
6121;SDS011;3091;51.506;7.672;2023-04-03T10:09:00;11.90;;;11.50;;
6121;SDS011;3091;51.506;7.672;2023-04-03T10:11:29;11.07;;;10.77;;
6121;SDS011;3091;51.506;7.672;2023-04-03T10:13:56;12.40;;;11.90;;
6121;SDS011;3091;51.506;7.672;2023-04-03T10:16:47;11.40;;;11.00;;
6121;SDS011;3091;51.506;7.672;2023-04-03T10:21:55;11.40;;;11.00;;
6121;SDS011;3091;51.506;7.672;2023-04-03T10:27:16;11.30;;;10.90;;
6121;SDS011;3091;51.506;7.672;2023-04-03T10:34:46;12.40;;;12.00;;
6121;SDS011;3091;51.506;7.672;2023-04-03T10:39:56;11.97;;;11.57;;
6121;SDS011;3091;51.506;7.672;2023-04-03T10:42:39;12.30;;;11.90;;
6121;SDS011;3091;51.506;7.672;2023-04-03T10:45:26;13.10;;;12.60;;
6121;SDS011;3091;51.506;7.672;2023-04-03T10:56:26;12.10;;;11.70;;
6121;SDS011;3091;51.506;7.672;2023-04-03T10:58:44;12.20;;;11.80;;
6121;SDS011;3091;51.506;7.672;2023-04-03T11:01:21;12.37;;;11.97;;
6121;SDS011;3091;51.506;7.672;2023-04-03T11:03:52;11.60;;;11.20;;
6121;SDS011;3091;51.506;7.672;2023-04-03T11:06:19;11.37;;;10.97;;
6121;SDS011;3091;51.506;7.672;2023-04-03T11:08:50;12.00;;;11.60;;
6121;SDS011;3091;51.506;7.672;2023-04-03T11:11:41;11.63;;;11.23;;
6121;SDS011;3091;51.506;7.672;2023-04-03T11:14:26;10.60;;;10.20;;
6121;SDS011;3091;51.506;7.672;2023-04-03T11:22:36;11.40;;;11.00;;
6121;SDS011;3091;51.506;7.672;2023-04-03T11:25:05;12.23;;;11.83;;
6121;SDS011;3091;51.506;7.672;2023-04-03T11:30:19;11.60;;;11.20;;
6121;SDS011;3091;51.506;7.672;2023-04-03T11:35:18;10.87;;;10.47;;
6121;SDS011;3091;51.506;7.672;2023-04-03T11:37:46;11.50;;;11.10;;
6121;SDS011;3091;51.506;7.672;2023-04-03T11:40:30;11.27;;;10.87;;
6121;SDS011;3091;51.506;7.672;2023-04-03T11:50:53;10.90;;;10.60;;
6121;SDS011;3091;51.506;7.672;2023-04-03T11:53:35;11.60;;;11.10;;
6121;SDS011;3091;51.506;7.672;2023-04-03T11:58:28;11.90;;;11.40;;
6121;SDS011;3091;51.506;7.672;2023-04-03T12:00:59;10.80;;;10.50;;
6121;SDS011;3091;51.506;7.672;2023-04-03T12:05:52;11.20;;;10.80;;
6121;SDS011;3091;51.506;7.672;2023-04-03T12:13:42;12.20;;;11.80;;
6121;SDS011;3091;51.506;7.672;2023-04-03T12:29:15;11.03;;;10.63;;
6121;SDS011;3091;51.506;7.672;2023-04-03T12:31:46;10.93;;;10.63;;
6121;SDS011;3091;51.506;7.672;2023-04-03T12:37:20;11.20;;;10.80;;
6121;SDS011;3091;51.506;7.672;2023-04-03T12:42:18;11.30;;;10.80;;
6121;SDS011;3091;51.506;7.672;2023-04-03T12:45:06;11.20;;;10.70;;
6121;SDS011;3091;51.506;7.672;2023-04-03T12:47:35;12.33;;;11.83;;
6121;SDS011;3091;51.506;7.672;2023-04-03T12:50:03;12.23;;;11.83;;
6121;SDS011;3091;51.506;7.672;2023-04-03T12:52:32;12.27;;;11.87;;
6121;SDS011;3091;51.506;7.672;2023-04-03T12:55:07;12.53;;;12.13;;
6121;SDS011;3091;51.506;7.672;2023-04-03T12:57:35;12.00;;;11.60;;
6121;SDS011;3091;51.506;7.672;2023-04-03T13:00:17;12.67;;;12.17;;
6121;SDS011;3091;51.506;7.672;2023-04-03T13:02:44;12.10;;;11.70;;
6121;SDS011;3091;51.506;7.672;2023-04-03T13:05:13;12.07;;;11.67;;
6121;SDS011;3091;51.506;7.672;2023-04-03T13:07:41;11.00;;;10.70;;
6121;SDS011;3091;51.506;7.672;2023-04-03T13:12:56;11.10;;;10.70;;
6121;SDS011;3091;51.506;7.672;2023-04-03T13:17:48;12.33;;;11.93;;
6121;SDS011;3091;51.506;7.672;2023-04-03T13:23:04;12.60;;;12.20;;
6121;SDS011;3091;51.506;7.672;2023-04-03T13:25:32;11.60;;;11.20;;
6121;SDS011;3091;51.506;7.672;2023-04-03T13:27:59;11.97;;;11.00;;
6121;SDS011;3091;51.506;7.672;2023-04-03T13:32:51;12.50;;;12.10;;
6121;SDS011;3091;51.506;7.672;2023-04-03T13:38:00;11.30;;;10.90;;
6121;SDS011;3091;51.506;7.672;2023-04-03T13:40:26;11.20;;;10.80;;
6121;SDS011;3091;51.506;7.672;2023-04-03T13:43:04;10.90;;;10.50;;
6121;SDS011;3091;51.506;7.672;2023-04-03T13:45:31;12.73;;;12.20;;
6121;SDS011;3091;51.506;7.672;2023-04-03T13:48:08;13.17;;;12.57;;
6121;SDS011;3091;51.506;7.672;2023-04-03T13:50:48;13.00;;;12.50;;
6121;SDS011;3091;51.506;7.672;2023-04-03T13:53:15;12.40;;;11.90;;
6121;SDS011;3091;51.506;7.672;2023-04-03T13:56:05;11.70;;;11.20;;
6121;SDS011;3091;51.506;7.672;2023-04-03T13:58:32;11.20;;;10.80;;
6121;SDS011;3091;51.506;7.672;2023-04-03T14:01:07;11.40;;;11.00;;
6121;SDS011;3091;51.506;7.672;2023-04-03T14:03:44;13.00;;;12.50;;
6121;SDS011;3091;51.506;7.672;2023-04-03T14:06:12;12.60;;;12.20;;
6121;SDS011;3091;51.506;7.672;2023-04-03T14:08:38;12.10;;;11.70;;
6121;SDS011;3091;51.506;7.672;2023-04-03T14:11:05;11.43;;;11.03;;
6121;SDS011;3091;51.506;7.672;2023-04-03T14:13:31;11.40;;;11.00;;
6121;SDS011;3091;51.506;7.672;2023-04-03T14:15:57;11.47;;;11.07;;
6121;SDS011;3091;51.506;7.672;2023-04-03T14:18:23;11.80;;;11.40;;
6121;SDS011;3091;51.506;7.672;2023-04-03T14:20:49;12.00;;;11.60;;
6121;SDS011;3091;51.506;7.672;2023-04-03T14:23:18;12.83;;;12.23;;
6121;SDS011;3091;51.506;7.672;2023-04-03T14:25:45;12.53;;;12.13;;
6121;SDS011;3091;51.506;7.672;2023-04-03T14:28:20;12.70;;;12.20;;
6121;SDS011;3091;51.506;7.672;2023-04-03T14:30:48;12.67;;;12.27;;
6121;SDS011;3091;51.506;7.672;2023-04-03T14:33:17;13.23;;;12.20;;
6121;SDS011;3091;51.506;7.672;2023-04-03T14:35:44;11.70;;;11.30;;
6121;SDS011;3091;51.506;7.672;2023-04-03T14:40:48;12.10;;;11.70;;
6121;SDS011;3091;51.506;7.672;2023-04-03T14:43:14;12.77;;;12.37;;
6121;SDS011;3091;51.506;7.672;2023-04-03T14:45:41;12.40;;;12.00;;
6121;SDS011;3091;51.506;7.672;2023-04-03T14:48:09;12.47;;;12.07;;
6121;SDS011;3091;51.506;7.672;2023-04-03T14:50:36;13.43;;;12.83;;
6121;SDS011;3091;51.506;7.672;2023-04-03T14:53:02;12.70;;;12.30;;
6121;SDS011;3091;51.506;7.672;2023-04-03T14:55:29;13.20;;;12.70;;
6121;SDS011;3091;51.506;7.672;2023-04-03T14:57:56;13.17;;;12.50;;
6121;SDS011;3091;51.506;7.672;2023-04-03T15:00:22;13.10;;;12.50;;
6121;SDS011;3091;51.506;7.672;2023-04-03T15:02:51;12.50;;;12.10;;
6121;SDS011;3091;51.506;7.672;2023-04-03T15:05:17;12.60;;;12.10;;
6121;SDS011;3091;51.506;7.672;2023-04-03T15:07:52;12.70;;;12.20;;
6121;SDS011;3091;51.506;7.672;2023-04-03T15:10:20;12.30;;;11.90;;
6121;SDS011;3091;51.506;7.672;2023-04-03T15:12:47;12.80;;;12.30;;
6121;SDS011;3091;51.506;7.672;2023-04-03T15:15:14;12.10;;;11.60;;
6121;SDS011;3091;51.506;7.672;2023-04-03T15:17:41;11.70;;;11.30;;
6121;SDS011;3091;51.506;7.672;2023-04-03T15:20:11;12.20;;;11.80;;
6121;SDS011;3091;51.506;7.672;2023-04-03T15:22:40;12.70;;;12.30;;
6121;SDS011;3091;51.506;7.672;2023-04-03T15:25:06;12.70;;;12.30;;
6121;SDS011;3091;51.506;7.672;2023-04-03T15:27:32;12.83;;;12.37;;
6121;SDS011;3091;51.506;7.672;2023-04-03T15:30:01;12.27;;;11.80;;
6121;SDS011;3091;51.506;7.672;2023-04-03T15:32:27;12.03;;;11.43;;
6121;SDS011;3091;51.506;7.672;2023-04-03T15:34:53;11.20;;;10.80;;
6121;SDS011;3091;51.506;7.672;2023-04-03T15:37:19;12.00;;;11.60;;
6121;SDS011;3091;51.506;7.672;2023-04-03T15:39:45;11.80;;;11.20;;
6121;SDS011;3091;51.506;7.672;2023-04-03T15:42:11;12.40;;;12.00;;
6121;SDS011;3091;51.506;7.672;2023-04-03T15:44:37;12.17;;;11.77;;
6121;SDS011;3091;51.506;7.672;2023-04-03T15:47:04;12.93;;;12.30;;
6121;SDS011;3091;51.506;7.672;2023-04-03T15:49:31;11.43;;;10.93;;
6121;SDS011;3091;51.506;7.672;2023-04-03T15:51:58;11.20;;;10.80;;
6121;SDS011;3091;51.506;7.672;2023-04-03T15:54:24;11.60;;;11.20;;
6121;SDS011;3091;51.506;7.672;2023-04-03T15:56:53;11.30;;;10.90;;
6121;SDS011;3091;51.506;7.672;2023-04-03T15:59:19;11.20;;;10.83;;
6121;SDS011;3091;51.506;7.672;2023-04-03T16:01:45;11.50;;;11.10;;
6121;SDS011;3091;51.506;7.672;2023-04-03T16:04:12;11.70;;;11.30;;
6121;SDS011;3091;51.506;7.672;2023-04-03T16:06:40;12.60;;;12.10;;
6121;SDS011;3091;51.506;7.672;2023-04-03T16:09:07;12.10;;;11.70;;
6121;SDS011;3091;51.506;7.672;2023-04-03T16:11:33;11.10;;;10.70;;
6121;SDS011;3091;51.506;7.672;2023-04-03T16:14:01;11.47;;;10.87;;
6121;SDS011;3091;51.506;7.672;2023-04-03T16:16:27;12.30;;;11.80;;
6121;SDS011;3091;51.506;7.672;2023-04-03T16:18:53;10.90;;;10.60;;
6121;SDS011;3091;51.506;7.672;2023-04-03T16:21:20;10.67;;;10.37;;
6121;SDS011;3091;51.506;7.672;2023-04-03T16:23:46;11.00;;;10.60;;
6121;SDS011;3091;51.506;7.672;2023-04-03T16:26:12;12.43;;;11.60;;
6121;SDS011;3091;51.506;7.672;2023-04-03T16:28:38;12.13;;;11.73;;
6121;SDS011;3091;51.506;7.672;2023-04-03T16:31:05;12.00;;;11.60;;
6121;SDS011;3091;51.506;7.672;2023-04-03T16:33:31;12.20;;;11.70;;
6121;SDS011;3091;51.506;7.672;2023-04-03T16:35:57;11.90;;;11.50;;
6121;SDS011;3091;51.506;7.672;2023-04-03T16:38:24;11.97;;;11.57;;
6121;SDS011;3091;51.506;7.672;2023-04-03T16:40:50;11.97;;;11.57;;